Relevés horaires Beauvechain (Belgique)


Relevés horaires à Beauvechain - Jeudi 03 Janv. 2019
Heure UTC1 Température [°C] Vent [km/h] Hum. [%] Pres.4 [hPa] Visi. [Km] Nébu. [octa] Préc.5 [mm] Cond.
2m. Res. Ros. Dir.2 Vit. Moy. Raf.3
23:00 2.0 2.0 1.2 NNO 1.9 -- 3.7 94 1040.7(0.0/3h) 6 -- -- --
22:00 2.0 2.0 1.0 NNO 1.9 -- 5.6 93 1041(0.0/3h) 6 -- -- --
21:00 2.5 2.5 1.3 NNO 1.9 -- 5.6 92 1041.2(0.2/3h) 9 -- -- --
20:00 2.7 2.7 1.2 NNO 1.9 -- 5.6 90 1040.7(-0.1/3h) 16 -- -- --
19:00 3.2 3.2 1.6 ONO 3.7 -- 3.7 89 1040.9(0.0/3h) 16 -- -- --
18:00 3.4 3.4 1.1 NNO 1.9 -- 9.3 85 1041(0.3/3h) 20 -- -- --
17:00 3.4 3.4 1.4 NNO 1.9 -- 3.7 87 1040.9(0.4/3h) 20 -- -- --
16:00 3.7 3.7 1.3 NNO 1.9 -- 3.7 84 1040.9(0.4/3h) 15 6/8 -- --
15:00 4.0 4.0 1.7 NNO 1.9 -- 9.3 85 1040.7(0.0/3h) 15 7/8 -- --
14:00 4.2 4.2 1.8 NO 3.7 -- 9.3 84 1040.5(-0.6/3h) 15 7/8 -- --
13:00 4.6 3.4 1.6 NNO 5.6 -- 9.3 81 1040.4(-0.8/3h) 20 7/8 -- --
12:00 4.5 4.5 1.6 NNO 3.7 -- 7.4 81 1040.5(-0.5/3h) 20 7/8 -- --
11:00 4.1 4.1 2.3 NO 3.7 -- 7.4 88 1041(0.2/3h) 15 7/8 -- --
10:00 3.5 3.5 1.9 NO 3.7 -- 7.4 89 1041.2(0.7/3h) 15 7/8 -- --
09:00 3.0 3.0 1.8 NNO 1.9 -- 3.7 92 1041(0.8/3h) 15 7/8 -- --
08:00 2.5 2.5 1.4 NNO 1.9 -- 3.7 92 1041(0.7/3h) 15 8/8 -- --
07:00 2.5 2.5 1.3 NNO 1.9 -- 3.7 92 1040.5(0.0/3h) 15 8/8 -- --
06:00 2.7 2.7 1.3 NNO 1.9 -- 5.6 90 1040.2(-0.8/3h) 17 -- -- --
05:00 2.5 2.5 1.2 O 3.7 -- 5.6 91 1040.2(-0.7/3h) 16 -- -- --
04:00 2.6 2.6 1.2 NNO 1.9 -- 5.6 90 1040.5(0.0/3h) 15 -- -- --
03:00 2.8 2.8 1.2 NNO 1.9 -- 5.6 89 1041(0.7/3h) 15 -- -- --
02:00 3.0 3.0 1.0 NO 3.7 -- 5.6 87 1040.9(0.8/3h) 18 -- -- --
01:00 3.4 3.4 0.7 NNO 3.7 -- 5.6 82 1040.5(0.3/3h) 19 -- -- --
00:00 3.0 3.0 1.0 NNO 3.7 -- 5.6 87 1040.4(0.0/3h) 16 -- -- --

1 Coordinated Universal Time. Actuellement il est 15:00 locale et 13:00 UTC.

2 Le vent souffle depuis la direction indiquée vers la direction oposée.

3 Les rafales max. sont disponible 40 min après l'heure du relevé.

4 Pour les stations d'altitude (plus de 600m) le géopotentiel du niveau le plus proche de la pression obligatoire est indiqué.

5 Les stations disposant d'un diffuseur peuvent indiquer "trace". Cela signifie que des précipitations ont touchés le sol mais que la quantité est inférieure à 0.1 mm.

Récapitulatif de la journée
Température [°C] Vent [km/h] Ensoleillement4 [h] Precipitations totale5 [mm] Pression [Hpa]
Min1 Max.2 Moy.3 Max. Min Max.
-- 4.8 0 9.3 0 h 0 min 0 1040.2 1041.2

1 Température minimale relevée entre 18:00 UTC la veille et 18:00 UTC le jour donné.

2 Température maximale relevée entre 06:00 UTC le jour donné et 06:00 UTC le lendemain.

3 Vent moyen de la journée basé sur les relevés horaires.

4 Ensoleillement en heures relevé entre 06:00 UTC la veille et 06:00 UTC le jour donné.

5 Précipitations totales tombées entre 06:00 UTC la jour donné et 06:00 UTC le lendemain.

Graphiques horaires